Obion, Tennessee
Current Conditions -  °F | °C
As of 10:15 AM on Monday 22 Dec 2014 (Local Time) from KUCY Reporting Station
Overcast Overcast  
Wind Chill: 45°   Ceiling: 1100
Heat Index: 48°   Visibility: 10mi
Dew Point: 48°   Wind: 8mph
Humidity: 100%   Direction: 160°SSE
Pressure: 29.79"   Gusts: NA
Location:  36.26°N, 89.19°W
Report Text: KUCY 221615Z AUTO 16007KT 10SM OVC011 09/09 A2979 RMK
Loading
Personal Weather Stations






























Interactive Weather Map New forecast layout! Learn more

10-Day Weather Forecast

Advertisements
Track Severe Weather on mobile